createdAt,value
2017-02-24T00:00:54.127Z,99.99
2017-02-24T00:02:03.561Z,99.99
2017-02-24T00:03:13.028Z,99.99
2017-02-24T00:04:22.885Z,99.99
2017-02-24T00:05:32.330Z,99.99
2017-02-24T00:06:41.763Z,99.99
2017-02-24T00:07:50.840Z,99.99
2017-02-24T00:08:59.901Z,99.99
2017-02-24T00:10:09.739Z,99.99
2017-02-24T00:11:18.804Z,99.99
2017-02-24T00:12:28.705Z,99.99
2017-02-24T00:13:38.543Z,99.99
2017-02-24T00:14:48.369Z,99.99
2017-02-24T00:15:57.041Z,99.99
2017-02-24T00:17:06.095Z,99.99
2017-02-24T00:18:15.555Z,99.99
2017-02-24T00:19:24.232Z,99.99
2017-02-24T00:20:34.048Z,99.99
2017-02-24T00:21:43.112Z,99.99
2017-02-24T00:22:52.578Z,99.99
2017-02-24T00:24:01.645Z,99.99
2017-02-24T00:25:10.718Z,99.99
2017-02-24T00:26:20.169Z,99.99
2017-02-24T00:27:29.610Z,99.99
2017-02-24T00:28:39.051Z,99.99
2017-02-24T00:29:48.932Z,99.99
2017-02-24T00:30:58.382Z,99.99
2017-02-24T00:32:07.078Z,99.99
2017-02-24T00:33:16.894Z,99.99
2017-02-24T00:34:26.352Z,99.99
2017-02-24T00:35:35.800Z,99.99
2017-02-24T00:36:45.263Z,99.99
2017-02-24T00:37:54.348Z,99.99
2017-02-24T00:39:04.580Z,99.99
2017-02-24T00:40:14.431Z,99.99
2017-02-24T00:41:24.306Z,99.99
2017-02-24T00:42:33.369Z,99.99
2017-02-24T00:43:42.422Z,99.99
2017-02-24T00:44:51.501Z,99.99
2017-02-24T00:46:00.562Z,99.99
2017-02-24T00:47:09.673Z,99.99
2017-02-24T00:48:19.490Z,99.99
2017-02-24T00:49:29.344Z,99.99
2017-02-24T00:50:38.395Z,99.99
2017-02-24T00:51:47.088Z,99.99
2017-02-24T00:52:56.146Z,99.99
2017-02-24T00:54:05.226Z,99.99
2017-02-24T00:55:15.071Z,99.99
2017-02-24T00:56:24.898Z,99.99
2017-02-24T00:57:34.355Z,99.99
2017-02-24T00:58:43.482Z,99.99
2017-02-24T00:59:53.684Z,99.99
2017-02-24T01:01:03.917Z,99.99
2017-02-24T01:02:12.994Z,99.99
2017-02-24T01:03:22.856Z,99.99
2017-02-24T01:04:31.558Z,99.99
2017-02-24T01:05:41.767Z,99.99
2017-02-24T01:06:51.977Z,99.99
2017-02-24T01:08:01.431Z,99.99
2017-02-24T01:09:10.495Z,99.99
2017-02-24T01:10:20.339Z,99.99
2017-02-24T01:11:29.444Z,99.99
2017-02-24T01:12:39.267Z,99.99
2017-02-24T01:13:48.706Z,99.99
2017-02-24T01:14:57.762Z,99.99
2017-02-24T01:16:07.220Z,99.99
2017-02-24T01:17:16.289Z,99.99
2017-02-24T01:18:26.106Z,99.99
2017-02-24T01:19:35.191Z,99.99
2017-02-24T01:20:44.638Z,99.99
2017-02-24T01:21:54.078Z,99.99
2017-02-24T01:23:03.528Z,99.99
2017-02-24T01:24:12.968Z,99.99
2017-02-24T01:25:22.813Z,99.99
2017-02-24T01:26:32.252Z,99.99
2017-02-24T01:27:41.310Z,99.99
2017-02-24T01:28:50.031Z,99.99
2017-02-24T01:29:59.852Z,99.99
2017-02-24T01:31:09.312Z,99.99
2017-02-24T01:32:17.985Z,99.99
2017-02-24T01:33:27.062Z,99.99
2017-02-24T01:34:36.893Z,99.99
2017-02-24T01:35:45.981Z,99.99
2017-02-24T01:36:55.029Z,99.99
2017-02-24T01:38:04.497Z,99.99
2017-02-24T01:39:13.938Z,99.99
2017-02-24T01:40:22.625Z,99.99
2017-02-24T01:41:31.694Z,99.99
2017-02-24T01:42:40.783Z,99.99
2017-02-24T01:43:50.232Z,99.99
2017-02-24T01:44:58.927Z,99.99
2017-02-24T01:46:09.149Z,99.99
2017-02-24T01:47:19.001Z,99.99
2017-02-24T01:48:28.825Z,99.99
2017-02-24T01:49:37.495Z,99.99
2017-02-24T01:50:46.550Z,99.99
2017-02-24T01:51:55.992Z,99.99
2017-02-24T01:53:05.049Z,99.99
2017-02-24T01:54:14.912Z,99.99
2017-02-24T01:55:24.383Z,99.99
2017-02-24T01:56:33.817Z,99.99
2017-02-24T01:57:43.655Z,99.99
2017-02-24T01:58:53.857Z,99.99
2017-02-24T02:00:03.302Z,99.99
2017-02-24T02:01:12.743Z,99.99
2017-02-24T02:02:22.608Z,99.99
2017-02-24T02:03:31.727Z,99.99
2017-02-24T02:04:41.206Z,99.99
2017-02-24T02:05:51.036Z,99.99
2017-02-24T02:07:00.499Z,99.99
2017-02-24T02:08:10.787Z,99.99
2017-02-24T02:09:20.274Z,99.99
2017-02-24T02:10:29.742Z,99.99
2017-02-24T02:11:38.858Z,99.99
2017-02-24T02:12:49.087Z,99.99
2017-02-24T02:13:57.791Z,99.99
2017-02-24T02:15:07.276Z,99.99
2017-02-24T02:16:17.132Z,99.99
2017-02-24T02:17:25.849Z,99.99
2017-02-24T02:18:34.536Z,99.99
2017-02-24T02:19:44.402Z,99.99
2017-02-24T02:20:53.877Z,99.99
2017-02-24T02:22:02.969Z,99.99
2017-02-24T02:23:12.828Z,99.99
2017-02-24T02:24:22.316Z,99.99
2017-02-24T02:25:32.163Z,99.99
2017-02-24T02:26:41.259Z,99.99
2017-02-24T02:27:51.507Z,99.99
2017-02-24T02:29:00.215Z,99.99
2017-02-24T02:30:09.311Z,99.99
2017-02-24T02:31:18.393Z,99.99
2017-02-24T02:32:27.484Z,99.99
2017-02-24T02:33:37.369Z,99.99
2017-02-24T02:34:47.228Z,99.99
2017-02-24T02:35:56.707Z,99.99
2017-02-24T02:37:06.938Z,99.99
2017-02-24T02:38:15.654Z,99.99
2017-02-24T02:39:24.756Z,99.99
2017-02-24T02:40:34.613Z,99.99
2017-02-24T02:41:44.069Z,99.99
2017-02-24T02:42:53.976Z,99.99
2017-02-24T02:44:03.048Z,99.99
2017-02-24T02:45:12.139Z,99.99
2017-02-24T02:46:21.991Z,99.99
2017-02-24T02:47:32.231Z,99.99
2017-02-24T02:48:42.103Z,99.99
2017-02-24T02:49:51.194Z,99.99
2017-02-24T02:51:00.306Z,99.99
2017-02-24T02:52:10.160Z,99.99
2017-02-24T02:53:20.401Z,99.99
2017-02-24T02:54:30.313Z,99.99
2017-02-24T02:55:39.399Z,99.99
2017-02-24T02:56:48.891Z,99.99
2017-02-24T02:57:58.374Z,99.99
2017-02-24T02:59:07.474Z,99.99
2017-02-24T03:00:16.565Z,99.99
2017-02-24T03:01:26.041Z,99.99
2017-02-24T03:02:35.530Z,99.99
2017-02-24T03:03:44.634Z,99.99
2017-02-24T03:04:53.353Z,99.99
2017-02-24T03:06:02.452Z,99.99
2017-02-24T03:07:12.308Z,99.99
2017-02-24T03:08:21.424Z,99.99
2017-02-24T03:09:31.678Z,99.99
2017-02-24T03:10:41.163Z,99.99
2017-02-24T03:11:50.791Z,99.99
2017-02-24T03:13:00.261Z,99.99
2017-02-24T03:14:09.735Z,99.99
2017-02-24T03:15:19.210Z,99.99
2017-02-24T03:16:29.451Z,99.99
2017-02-24T03:17:38.605Z,99.99
2017-02-24T03:18:48.071Z,99.99
2017-02-24T03:19:57.164Z,99.99
2017-02-24T03:21:06.641Z,99.99
2017-02-24T03:22:16.115Z,99.99
2017-02-24T03:23:25.588Z,99.99
2017-02-24T03:24:34.701Z,99.99
2017-02-24T03:25:44.182Z,99.99
2017-02-24T03:26:52.875Z,99.99
2017-02-24T03:28:01.623Z,99.99
2017-02-24T03:29:11.162Z,99.99
2017-02-24T03:30:19.902Z,99.99
2017-02-24T03:31:29.417Z,99.99
2017-02-24T03:32:38.123Z,99.99
2017-02-24T03:33:47.584Z,99.99
2017-02-24T03:34:57.435Z,99.99
2017-02-24T03:36:06.920Z,99.67
2017-02-24T03:37:16.017Z,99.29
2017-02-24T03:38:25.886Z,99.39
2017-02-24T03:39:35.024Z,99.58
2017-02-24T03:40:43.834Z,99.67
2017-02-24T03:41:53.698Z,99.1
2017-02-24T03:43:03.234Z,99.62
2017-02-24T03:44:13.099Z,99.9
2017-02-24T03:45:22.819Z,99.99
2017-02-24T03:46:31.992Z,99.99
2017-02-24T03:47:41.477Z,99.99
2017-02-24T03:48:51.378Z,99.99
2017-02-24T03:50:01.251Z,99.99
2017-02-24T03:51:11.535Z,99.99
2017-02-24T03:52:21.002Z,99.99
2017-02-24T03:53:30.090Z,99.99
2017-02-24T03:54:39.569Z,99.99
2017-02-24T03:55:49.115Z,99.99
2017-02-24T03:56:58.574Z,99.99
2017-02-24T03:58:08.106Z,99.99
2017-02-24T03:59:17.274Z,99.99
2017-02-24T04:00:27.885Z,99.99
2017-02-24T04:01:36.983Z,99.99
2017-02-24T04:02:46.084Z,99.99
2017-02-24T04:03:56.325Z,99.99
2017-02-24T04:05:05.801Z,99.99
2017-02-24T04:06:15.277Z,99.99
2017-02-24T04:07:24.370Z,99.99
2017-02-24T04:08:33.861Z,99.99
2017-02-24T04:09:43.331Z,99.99
2017-02-24T04:10:52.821Z,99.99
2017-02-24T04:12:02.286Z,99.99
2017-02-24T04:13:12.137Z,99.99
2017-02-24T04:14:21.596Z,99.99
2017-02-24T04:15:31.850Z,99.99
2017-02-24T04:16:40.943Z,99.99
2017-02-24T04:17:50.069Z,99.99
2017-02-24T04:18:59.554Z,99.99
2017-02-24T04:20:08.654Z,99.99
2017-02-24T04:21:18.126Z,99.99
2017-02-24T04:22:26.848Z,99.99
2017-02-24T04:23:36.712Z,99.99
2017-02-24T04:24:46.180Z,99.99
2017-02-24T04:25:55.647Z,99.99
2017-02-24T04:27:05.527Z,99.99
2017-02-24T04:28:14.988Z,99.99
2017-02-24T04:29:24.858Z,99.99
2017-02-24T04:30:33.543Z,99.99
2017-02-24T04:31:42.623Z,99.99
2017-02-24T04:32:52.483Z,99.99
2017-02-24T04:34:01.978Z,99.99
2017-02-24T04:35:11.095Z,99.99
2017-02-24T04:36:20.187Z,99.99
2017-02-24T04:37:30.026Z,99.99
2017-02-24T04:38:38.741Z,99.99
2017-02-24T04:39:48.227Z,99.99
2017-02-24T04:40:58.088Z,99.99
2017-02-24T04:42:08.371Z,99.99
2017-02-24T04:43:17.858Z,99.99
2017-02-24T04:44:26.966Z,99.99
2017-02-24T04:45:36.835Z,99.99
2017-02-24T04:46:46.305Z,99.99
2017-02-24T04:47:55.015Z,99.99
2017-02-24T04:49:04.475Z,99.99
2017-02-24T04:50:13.578Z,99.99
2017-02-24T04:51:23.058Z,99.99
2017-02-24T04:52:32.183Z,99.99
2017-02-24T04:53:41.663Z,99.99
2017-02-24T04:54:50.776Z,99.99
2017-02-24T04:56:00.248Z,99.99
2017-02-24T04:57:09.713Z,99.99
2017-02-24T04:58:19.591Z,99.99
2017-02-24T04:59:29.826Z,99.99
2017-02-24T05:00:39.806Z,99.99
2017-02-24T05:01:49.264Z,99.99
2017-02-24T05:02:59.169Z,99.99
2017-02-24T05:04:09.058Z,99.99
2017-02-24T05:05:18.927Z,99.99
2017-02-24T05:06:27.623Z,99.99
2017-02-24T05:07:37.525Z,99.99
2017-02-24T05:08:47.401Z,99.99
2017-02-24T05:09:56.479Z,99.99
2017-02-24T05:11:06.332Z,99.99
2017-02-24T05:12:16.184Z,99.99
2017-02-24T05:13:24.941Z,99.99
2017-02-24T05:14:34.033Z,99.99
2017-02-24T05:15:43.522Z,99.99
2017-02-24T05:16:53.006Z,99.99
2017-02-24T05:18:02.099Z,99.99
2017-02-24T05:19:11.573Z,99.99
2017-02-24T05:20:21.432Z,99.99
2017-02-24T05:21:30.517Z,99.99
2017-02-24T05:22:40.004Z,99.99
2017-02-24T05:23:49.118Z,99.99
2017-02-24T05:24:59.357Z,99.99
2017-02-24T05:26:08.058Z,99.99
2017-02-24T05:27:18.292Z,99.99
2017-02-24T05:28:28.533Z,99.99
2017-02-24T05:29:38.396Z,99.99
2017-02-24T05:30:48.285Z,99.99
2017-02-24T05:31:57.764Z,99.99
2017-02-24T05:33:06.848Z,99.99
2017-02-24T05:34:16.718Z,99.99
2017-02-24T05:35:26.218Z,99.99
2017-02-24T05:36:35.688Z,99.99
2017-02-24T05:37:44.791Z,99.99
2017-02-24T05:38:53.526Z,99.99
2017-02-24T05:40:03.016Z,99.99
2017-02-24T05:41:12.486Z,99.99
2017-02-24T05:42:21.977Z,99.99
2017-02-24T05:43:31.063Z,99.99
2017-02-24T05:44:39.765Z,99.99
2017-02-24T05:45:48.850Z,99.99
2017-02-24T05:46:57.947Z,99.99
2017-02-24T05:48:07.045Z,99.99
2017-02-24T05:49:16.517Z,99.99
2017-02-24T05:50:25.990Z,99.99
2017-02-24T05:51:35.098Z,99.99
2017-02-24T05:52:44.956Z,99.99
2017-02-24T05:53:54.138Z,99.99
2017-02-24T05:55:02.829Z,99.99
2017-02-24T05:56:12.676Z,99.99
2017-02-24T05:57:21.767Z,99.99
2017-02-24T05:58:31.628Z,99.99
2017-02-24T05:59:40.717Z,99.99
2017-02-24T06:00:49.813Z,99.99
2017-02-24T06:01:59.320Z,99.99
2017-02-24T06:03:08.441Z,99.99
2017-02-24T06:04:17.524Z,99.99
2017-02-24T06:05:26.220Z,99.99
2017-02-24T06:06:35.708Z,99.99
2017-02-24T06:07:45.585Z,99.99
2017-02-24T06:08:55.452Z,99.99
2017-02-24T06:10:05.328Z,99.99
2017-02-24T06:11:14.081Z,99.99
2017-02-24T06:12:22.789Z,99.99
2017-02-24T06:13:32.260Z,99.99
2017-02-24T06:14:41.349Z,99.99
2017-02-24T06:15:50.835Z,99.99
2017-02-24T06:17:01.112Z,99.99
2017-02-24T06:18:11.368Z,99.99
2017-02-24T06:19:20.453Z,99.99
2017-02-24T06:20:29.552Z,99.99
2017-02-24T06:21:39.019Z,99.99
2017-02-24T06:22:49.331Z,99.99
2017-02-24T06:23:58.827Z,99.99
2017-02-24T06:25:08.294Z,99.99
2017-02-24T06:26:18.543Z,99.99
2017-02-24T06:27:27.634Z,99.99
2017-02-24T06:28:36.347Z,99.99
2017-02-24T06:29:45.849Z,99.99
2017-02-24T06:30:55.333Z,99.99
2017-02-24T06:32:05.230Z,99.99
2017-02-24T06:33:15.105Z,99.99
2017-02-24T06:34:24.213Z,99.99
2017-02-24T06:35:33.684Z,99.99
2017-02-24T06:36:42.389Z,99.99
2017-02-24T06:37:51.861Z,99.99
2017-02-24T06:39:01.728Z,99.99
2017-02-24T06:40:11.604Z,99.99
2017-02-24T06:41:21.839Z,99.99
2017-02-24T06:42:31.717Z,99.99
2017-02-24T06:43:40.802Z,99.99
2017-02-24T06:44:50.654Z,99.99
2017-02-24T06:46:00.956Z,99.99
2017-02-24T06:47:10.420Z,99.99
2017-02-24T06:48:19.885Z,99.99
2017-02-24T06:49:30.511Z,99.99
2017-02-24T06:50:40.379Z,99.99
2017-02-24T06:51:49.854Z,99.99
2017-02-24T06:52:59.739Z,99.99
2017-02-24T06:54:09.238Z,99.99
2017-02-24T06:55:19.102Z,99.99
2017-02-24T06:56:28.201Z,99.99
2017-02-24T06:57:37.684Z,99.99
2017-02-24T06:58:47.164Z,99.99
2017-02-24T06:59:56.636Z,99.99
2017-02-24T07:01:06.963Z,99.99
2017-02-24T07:02:16.451Z,99.99
2017-02-24T07:03:25.918Z,99.99
2017-02-24T07:04:35.798Z,99.99
2017-02-24T07:05:44.898Z,99.99
2017-02-24T07:06:54.386Z,99.99
2017-02-24T07:08:05.029Z,99.99
2017-02-24T07:09:14.882Z,99.99
2017-02-24T07:10:24.357Z,99.99
2017-02-24T07:11:33.829Z,99.99
2017-02-24T07:12:43.311Z,99.99
2017-02-24T07:13:52.795Z,99.99
2017-02-24T07:15:02.705Z,99.99
2017-02-24T07:16:11.798Z,99.99
2017-02-24T07:17:20.937Z,99.99
2017-02-24T07:18:31.579Z,99.99
2017-02-24T07:19:41.042Z,99.99
2017-02-24T07:20:50.518Z,99.99
2017-02-24T07:22:00.389Z,99.99
2017-02-24T07:23:09.851Z,99.99
2017-02-24T07:24:19.323Z,99.99
2017-02-24T07:25:28.433Z,99.99
2017-02-24T07:26:37.916Z,99.99
2017-02-24T07:27:47.028Z,99.99
2017-02-24T07:28:56.134Z,99.99
2017-02-24T07:30:06.373Z,99.99
2017-02-24T07:31:15.488Z,99.99
2017-02-24T07:32:24.641Z,99.99
2017-02-24T07:33:34.115Z,99.99
2017-02-24T07:34:43.569Z,99.99
2017-02-24T07:35:53.436Z,99.99
2017-02-24T07:37:02.528Z,99.99
2017-02-24T07:38:11.252Z,99.99
2017-02-24T07:39:19.952Z,99.99
2017-02-24T07:40:29.441Z,99.99
2017-02-24T07:41:38.920Z,99.99
2017-02-24T07:42:48.024Z,99.99
2017-02-24T07:43:57.518Z,99.99
2017-02-24T07:45:07.363Z,99.99
2017-02-24T07:46:16.834Z,99.99
2017-02-24T07:47:26.698Z,99.99
2017-02-24T07:48:35.771Z,99.99
2017-02-24T07:49:44.528Z,99.99
2017-02-24T07:50:53.263Z,99.99
2017-02-24T07:52:02.351Z,99.99
2017-02-24T07:53:11.855Z,99.99
2017-02-24T07:54:20.939Z,99.99
2017-02-24T07:55:30.442Z,99.99
2017-02-24T07:56:39.899Z,99.99
2017-02-24T07:57:49.764Z,99.99
2017-02-24T07:58:59.248Z,99.99
2017-02-24T08:00:09.130Z,99.99
2017-02-24T08:01:18.219Z,99.99
2017-02-24T08:02:28.523Z,99.99
2017-02-24T08:03:39.135Z,99.99
2017-02-24T08:04:48.995Z,99.99
2017-02-24T08:05:58.849Z,99.99
2017-02-24T08:07:08.762Z,99.99
2017-02-24T08:08:17.862Z,99.99
2017-02-24T08:09:27.323Z,99.99
2017-02-24T08:10:37.572Z,99.99
2017-02-24T08:11:47.440Z,99.99
2017-02-24T08:12:56.547Z,99.99
2017-02-24T08:14:06.029Z,99.99
2017-02-24T08:15:15.126Z,99.99
2017-02-24T08:16:25.006Z,99.99
2017-02-24T08:17:34.094Z,99.99
2017-02-24T08:18:43.250Z,99.99
2017-02-24T08:19:53.103Z,99.99
2017-02-24T08:21:02.983Z,99.99
2017-02-24T08:22:12.074Z,99.99
2017-02-24T08:23:22.331Z,99.99
2017-02-24T08:24:31.431Z,99.99
2017-02-24T08:25:40.146Z,99.99
2017-02-24T08:26:48.865Z,99.99
2017-02-24T08:27:58.334Z,99.99
2017-02-24T08:29:07.446Z,99.99
2017-02-24T08:30:17.303Z,99.99
2017-02-24T08:31:26.419Z,99.99
2017-02-24T08:32:35.142Z,99.99
2017-02-24T08:33:43.863Z,99.99
2017-02-24T08:34:54.111Z,99.99
2017-02-24T08:36:03.607Z,99.99
2017-02-24T08:37:13.128Z,99.99
2017-02-24T08:38:23.021Z,99.99
2017-02-24T08:39:32.120Z,99.99
2017-02-24T08:40:41.974Z,99.99
2017-02-24T08:41:51.526Z,99.99
2017-02-24T08:43:01.070Z,99.99
2017-02-24T08:44:10.201Z,99.99
2017-02-24T08:45:19.299Z,99.99
2017-02-24T08:46:28.383Z,99.99
2017-02-24T08:47:38.259Z,99.99
2017-02-24T08:48:47.341Z,99.99
2017-02-24T08:49:56.416Z,99.99
2017-02-24T08:51:05.517Z,99.99
2017-02-24T08:52:15.000Z,99.99
2017-02-24T08:53:24.125Z,99.99
2017-02-24T08:54:33.608Z,99.99
2017-02-24T08:55:43.915Z,99.99
2017-02-24T08:56:53.768Z,99.99
2017-02-24T08:58:02.881Z,99.99
2017-02-24T08:59:11.982Z,99.99
2017-02-24T09:00:21.056Z,99.99
2017-02-24T09:01:30.534Z,99.99
2017-02-24T09:02:39.642Z,99.99
2017-02-24T09:03:49.916Z,99.99
2017-02-24T09:04:59.070Z,99.72
2017-02-24T09:06:08.162Z,98.49
2017-02-24T09:07:17.697Z,97.64
2017-02-24T09:08:27.185Z,98.39
2017-02-24T09:09:36.674Z,99.53
2017-02-24T09:10:46.641Z,98.77
2017-02-24T09:11:56.919Z,97.73
2017-02-24T09:13:06.518Z,97.35
2017-02-24T09:14:16.028Z,97.83
2017-02-24T09:15:25.122Z,97.73
2017-02-24T09:16:34.277Z,97.64
2017-02-24T09:17:43.384Z,97.54
2017-02-24T09:18:52.474Z,96.41
2017-02-24T09:20:01.958Z,97.07
2017-02-24T09:21:11.455Z,95.36
2017-02-24T09:22:20.574Z,96.78
2017-02-24T09:23:30.453Z,95.45
2017-02-24T09:24:39.919Z,95.93
2017-02-24T09:25:49.396Z,95.36
2017-02-24T09:26:58.122Z,93.37
2017-02-24T09:28:07.674Z,95.03
2017-02-24T09:29:17.927Z,95.03
2017-02-24T09:30:27.027Z,95.22
2017-02-24T09:31:36.887Z,95.98
2017-02-24T09:32:45.593Z,95.31
2017-02-24T09:33:55.100Z,95.31
2017-02-24T09:35:05.773Z,94.65
2017-02-24T09:36:14.873Z,95.12
2017-02-24T09:37:24.356Z,95.98
2017-02-24T09:38:34.238Z,94.74
2017-02-24T09:39:44.108Z,94.08
2017-02-24T09:40:53.593Z,94.46
2017-02-24T09:42:03.483Z,95.5
2017-02-24T09:43:13.339Z,94.56
2017-02-24T09:44:23.191Z,95.69
2017-02-24T09:45:33.491Z,95.22
2017-02-24T09:46:44.135Z,93.7
2017-02-24T09:47:53.634Z,94.74
2017-02-24T09:49:03.506Z,96.17
2017-02-24T09:50:13.012Z,96.17
2017-02-24T09:51:22.900Z,95.69
2017-02-24T09:52:32.786Z,93.94
2017-02-24T09:53:41.885Z,93.94
2017-02-24T09:54:52.153Z,93.94
2017-02-24T09:56:02.014Z,95.27
2017-02-24T09:57:11.113Z,94.79
2017-02-24T09:58:20.609Z,94.42
2017-02-24T09:59:30.478Z,93.75
2017-02-24T10:00:39.959Z,92.14
2017-02-24T10:01:50.373Z,91.28
2017-02-24T10:02:59.103Z,90.71
2017-02-24T10:04:08.583Z,89
2017-02-24T10:05:18.069Z,90.14
2017-02-24T10:06:27.176Z,92.42
2017-02-24T10:07:37.083Z,92.04
2017-02-24T10:08:46.579Z,91.56
2017-02-24T10:09:56.451Z,89.86
2017-02-24T10:11:06.314Z,87.82
2017-02-24T10:12:16.590Z,87.24
2017-02-24T10:13:25.668Z,86.96
2017-02-24T10:14:34.418Z,87.77
2017-02-24T10:15:43.897Z,87.58
2017-02-24T10:16:53.782Z,88.57
2017-02-24T10:18:02.888Z,86.39
2017-02-24T10:19:12.000Z,83.73
2017-02-24T10:20:22.253Z,83.73
2017-02-24T10:21:30.978Z,84.25
2017-02-24T10:22:41.262Z,82.54
2017-02-24T10:23:50.752Z,83.36
2017-02-24T10:25:00.257Z,85.06
2017-02-24T10:26:09.741Z,82.97
2017-02-24T10:27:19.212Z,81.3
2017-02-24T10:28:29.466Z,81.25
2017-02-24T10:29:38.161Z,81.97
2017-02-24T10:30:48.426Z,80.55
2017-02-24T10:31:57.910Z,82.82
2017-02-24T10:33:07.777Z,79.79
2017-02-24T10:34:16.501Z,79.88
2017-02-24T10:35:26.003Z,81.59
2017-02-24T10:36:35.519Z,83.2
2017-02-24T10:37:44.672Z,86.05
2017-02-24T10:38:54.161Z,86.82
2017-02-24T10:40:03.642Z,84.25
2017-02-24T10:41:13.145Z,84.34
2017-02-24T10:42:23.012Z,86.43
2017-02-24T10:43:32.094Z,86.39
2017-02-24T10:44:41.958Z,86.68
2017-02-24T10:45:50.660Z,85.91
2017-02-24T10:46:59.773Z,84.49
2017-02-24T10:48:09.277Z,86.49
2017-02-24T10:49:18.365Z,85.16
2017-02-24T10:50:27.107Z,82.27
2017-02-24T10:51:36.213Z,82.03
2017-02-24T10:52:46.474Z,82.74
2017-02-24T10:53:55.552Z,82.74
2017-02-24T10:55:05.433Z,84.64
2017-02-24T10:56:14.533Z,85.4
2017-02-24T10:57:24.017Z,83.5
2017-02-24T10:58:33.118Z,81.23
2017-02-24T10:59:42.606Z,81.6
2017-02-24T11:00:51.758Z,84.07
2017-02-24T11:02:01.611Z,84.64
2017-02-24T11:03:11.079Z,84.17
2017-02-24T11:04:20.579Z,83.03
2017-02-24T11:05:29.709Z,80.83
2017-02-24T11:06:39.208Z,75.26
2017-02-24T11:07:48.331Z,75.68
2017-02-24T11:08:58.182Z,69.67
2017-02-24T11:10:07.335Z,68.71
2017-02-24T11:11:16.431Z,66.72
2017-02-24T11:12:25.986Z,70.08
2017-02-24T11:13:35.860Z,69.42
2017-02-24T11:14:45.350Z,67.7
2017-02-24T11:15:54.473Z,66.94
2017-02-24T11:17:03.953Z,67.51
2017-02-24T11:18:14.216Z,66.66
2017-02-24T11:19:24.476Z,68.84
2017-02-24T11:20:33.988Z,68.78
2017-02-24T11:21:43.853Z,68.02
2017-02-24T11:22:52.992Z,66.05
2017-02-24T11:24:02.852Z,65.67
2017-02-24T11:25:12.720Z,66.66
2017-02-24T11:26:22.215Z,66.62
2017-02-24T11:27:31.326Z,69.35
2017-02-24T11:28:40.415Z,71.34
2017-02-24T11:29:50.328Z,68.4
2017-02-24T11:30:59.422Z,67.63
2017-02-24T11:32:08.893Z,70.17
2017-02-24T11:33:19.160Z,72.16
2017-02-24T11:34:28.641Z,72.74
2017-02-24T11:35:38.943Z,73.55
2017-02-24T11:36:48.426Z,75.64
2017-02-24T11:37:58.279Z,74.63
2017-02-24T11:39:06.986Z,72.35
2017-02-24T11:40:16.857Z,75.59
2017-02-24T11:41:25.948Z,75.02
2017-02-24T11:42:34.647Z,74.51
2017-02-24T11:43:44.133Z,75.07
2017-02-24T11:44:53.616Z,76.27
2017-02-24T11:46:03.099Z,76.27
2017-02-24T11:47:12.637Z,76.75
2017-02-24T11:48:22.498Z,79.12
2017-02-24T11:49:32.756Z,76.37
2017-02-24T11:50:42.298Z,76.03
2017-02-24T11:51:52.605Z,76.88
2017-02-24T11:53:02.471Z,75.36
2017-02-24T11:54:11.569Z,75.45
2017-02-24T11:55:20.702Z,75.84
2017-02-24T11:56:30.185Z,76.5
2017-02-24T11:57:39.663Z,75.17
2017-02-24T11:58:49.148Z,74.51
2017-02-24T11:59:58.248Z,72.89
2017-02-24T12:01:07.720Z,72.13
2017-02-24T12:02:17.583Z,71.88
2017-02-24T12:03:27.065Z,70.36
2017-02-24T12:04:35.791Z,71.69
2017-02-24T12:05:45.670Z,68.74
2017-02-24T12:06:55.537Z,66.36
2017-02-24T12:08:05.020Z,68.33
2017-02-24T12:09:14.506Z,69.37
2017-02-24T12:10:23.643Z,70.51
2017-02-24T12:11:33.131Z,66.24
2017-02-24T12:12:42.611Z,64.9
2017-02-24T12:13:52.080Z,66.52
2017-02-24T12:15:01.183Z,63.1
2017-02-24T12:16:11.102Z,65.09
2017-02-24T12:17:20.583Z,64.72
2017-02-24T12:18:30.457Z,64.05
2017-02-24T12:19:39.961Z,65.13
2017-02-24T12:20:49.450Z,65.51
2017-02-24T12:21:58.943Z,65.03
2017-02-24T12:23:08.037Z,65.67
2017-02-24T12:24:17.530Z,68.42
2017-02-24T12:25:26.245Z,70.42
2017-02-24T12:26:35.712Z,70.23
2017-02-24T12:27:45.237Z,70
2017-02-24T12:28:54.712Z,72
2017-02-24T12:30:03.445Z,72.56
2017-02-24T12:31:12.568Z,74.37
2017-02-24T12:32:21.664Z,75.89
2017-02-24T12:33:30.787Z,76.52
2017-02-24T12:34:40.661Z,78.61
2017-02-24T12:35:49.755Z,78.51
2017-02-24T12:36:59.227Z,79.27
2017-02-24T12:38:08.711Z,79.65
2017-02-24T12:39:18.633Z,80.13
2017-02-24T12:40:28.141Z,79.84
2017-02-24T12:41:37.627Z,78.89
2017-02-24T12:42:47.476Z,79.65
2017-02-24T12:43:56.572Z,79.36
2017-02-24T12:45:05.331Z,79.36
2017-02-24T12:46:15.621Z,77.56
2017-02-24T12:47:25.882Z,76.42
2017-02-24T12:48:34.597Z,76.8
2017-02-24T12:49:44.476Z,77.66
2017-02-24T12:50:54.353Z,78.32
2017-02-24T12:52:04.205Z,79.46
2017-02-24T12:53:13.286Z,78.85
2017-02-24T12:54:23.524Z,78.85
2017-02-24T12:55:33.008Z,79.33
2017-02-24T12:56:42.093Z,79.33
2017-02-24T12:57:51.603Z,80.27
2017-02-24T12:59:00.330Z,81.13
2017-02-24T13:00:10.172Z,81.32
2017-02-24T13:01:19.650Z,80.75
2017-02-24T13:02:28.782Z,81.41
2017-02-24T13:03:38.247Z,81.23
2017-02-24T13:04:48.137Z,79.23
2017-02-24T13:05:57.663Z,78.66
2017-02-24T13:07:06.783Z,78.51
2017-02-24T13:08:15.871Z,78.99
2017-02-24T13:09:24.594Z,77.37
2017-02-24T13:10:33.678Z,75.95
2017-02-24T13:11:42.790Z,76.71
2017-02-24T13:12:52.648Z,78.03
2017-02-24T13:14:01.788Z,75.95
2017-02-24T13:15:10.879Z,74.66
2017-02-24T13:16:20.756Z,72.95
2017-02-24T13:17:30.280Z,73.42
2017-02-24T13:18:39.810Z,74.47
2017-02-24T13:19:49.735Z,71.52
2017-02-24T13:20:59.350Z,69.91
2017-02-24T13:22:08.076Z,69.91
2017-02-24T13:23:17.585Z,69.75
2017-02-24T13:24:27.067Z,66.24
2017-02-24T13:25:36.999Z,65.38
2017-02-24T13:26:46.118Z,65.73
2017-02-24T13:27:55.961Z,63.2
2017-02-24T13:29:05.851Z,65.54
2017-02-24T13:30:15.343Z,66.39
2017-02-24T13:31:24.057Z,65.76
2017-02-24T13:32:33.149Z,64.9
2017-02-24T13:33:42.679Z,63.48
2017-02-24T13:34:52.158Z,63.95
2017-02-24T13:36:02.050Z,64.78
2017-02-24T13:37:11.918Z,64.3
2017-02-24T13:38:21.385Z,65.92
2017-02-24T13:39:30.871Z,63.73
2017-02-24T13:40:39.996Z,65.16
2017-02-24T13:41:49.081Z,65.82
2017-02-24T13:42:59.009Z,66.3
2017-02-24T13:44:08.120Z,66.39
2017-02-24T13:45:18.006Z,66.49
2017-02-24T13:46:26.705Z,67.44
2017-02-24T13:47:35.791Z,66.3
2017-02-24T13:48:44.500Z,66.96
2017-02-24T13:49:53.981Z,66.3
2017-02-24T13:51:04.228Z,67.53
2017-02-24T13:52:13.702Z,68.39
2017-02-24T13:53:23.177Z,68.29
2017-02-24T13:54:33.440Z,68.77
2017-02-24T13:55:42.924Z,67.91
2017-02-24T13:56:52.432Z,66.58
2017-02-24T13:58:02.373Z,66.01
2017-02-24T13:59:11.077Z,65.63
2017-02-24T14:00:20.643Z,65.86
2017-02-24T14:01:30.123Z,66.42
2017-02-24T14:02:39.769Z,66.05
2017-02-24T14:03:48.995Z,67.44
2017-02-24T14:04:58.694Z,67.91
2017-02-24T14:06:08.311Z,68.29
2017-02-24T14:07:17.508Z,68.48
2017-02-24T14:08:27.014Z,68.48
2017-02-24T14:09:36.493Z,66.39
2017-02-24T14:10:46.371Z,66.3
2017-02-24T14:11:55.871Z,66.67
2017-02-24T14:13:05.375Z,66.3
2017-02-24T14:14:14.101Z,68.39
2017-02-24T14:15:23.191Z,68.48
2017-02-24T14:16:31.905Z,68.71
2017-02-24T14:17:41.769Z,66.9
2017-02-24T14:18:50.875Z,68.8
2017-02-24T14:19:59.974Z,68.9
2017-02-24T14:21:10.631Z,68.04
2017-02-24T14:22:20.494Z,67
2017-02-24T14:23:30.401Z,68.71
2017-02-24T14:24:39.507Z,69.34
2017-02-24T14:25:49.403Z,68.96
2017-02-24T14:26:58.503Z,67.91
2017-02-24T14:28:07.973Z,68.86
2017-02-24T14:29:17.455Z,69.62
2017-02-24T14:30:26.936Z,69.81
2017-02-24T14:31:36.016Z,69.34
2017-02-24T14:32:45.498Z,69.91
2017-02-24T14:33:54.603Z,68.96
2017-02-24T14:35:04.465Z,68.1
2017-02-24T14:36:14.333Z,66.49
2017-02-24T14:37:23.839Z,68.33
2017-02-24T14:38:32.929Z,67.66
2017-02-24T14:39:42.437Z,67.57
2017-02-24T14:40:51.558Z,67.19
2017-02-24T14:42:00.724Z,66.65
2017-02-24T14:43:10.217Z,64.18
2017-02-24T14:44:18.933Z,63.51
2017-02-24T14:45:28.442Z,66.05
2017-02-24T14:46:38.302Z,66.71
2017-02-24T14:47:47.790Z,68.9
2017-02-24T14:48:57.282Z,67.85
2017-02-24T14:50:06.757Z,66.52
2017-02-24T14:51:17.014Z,66.71
2017-02-24T14:52:26.546Z,67.19
2017-02-24T14:53:35.638Z,67.47
2017-02-24T14:54:44.734Z,67.76
2017-02-24T14:55:53.460Z,69.05
2017-02-24T14:57:02.935Z,70.1